Time;durP1;ratioP1;P1;durP2;ratioP2;P2;SDS_P1;SDS_P2;PMS_P1;PMS_P2;Temp;Humidity;BMP_temperature;BMP_pressure;BME280_temperature;BME280_humidity;BME280_pressure;Samples;Min_cycle;Max_cycle;Signal;HPM_P1;HPM_P2
2022/10/20 00:02:24;;;;;;;5.10;3.33;;;;;;;4.98;100.00;99181.75;15272029;19;20018;-60
2022/10/20 00:07:48;;;;;;;4.25;3.50;;;;;;;4.87;100.00;99179.81;15270515;19;20019;-61
2022/10/20 00:13:13;;;;;;;7.28;3.92;;;;;;;4.85;100.00;99179.91;15273720;19;20380;-58
2022/10/20 00:18:40;;;;;;;5.30;3.45;;;;;;;4.84;100.00;99183.53;15276664;19;20018;-59
2022/10/20 00:24:08;;;;;;;5.78;3.60;;;;;;;4.78;100.00;99184.81;15275262;19;20472;-60
2022/10/20 00:29:33;;;;;;;5.30;3.70;;;;;;;4.72;100.00;99187.91;15271898;19;20010;-60
2022/10/20 00:35:01;;;;;;;5.78;3.80;;;;;;;4.67;100.00;99182.03;15278781;19;20495;-58
2022/10/20 00:40:25;;;;;;;4.45;3.80;;;;;;;4.60;100.00;99165.59;15264714;19;20014;-60
2022/10/20 00:45:51;;;;;;;6.10;4.13;;;;;;;4.56;100.00;99163.22;15277587;19;20011;-56
2022/10/20 00:51:21;;;;;;;4.22;3.78;;;;;;;4.49;100.00;99149.44;15276858;19;20485;-59
2022/10/20 00:56:50;;;;;;;7.30;4.10;;;;;;;4.43;100.00;99139.19;15277243;19;20267;-59
2022/10/20 01:02:15;;;;;;;5.07;4.30;;;;;;;4.38;100.00;99125.31;15270428;19;20010;-57
2022/10/20 01:07:43;;;;;;;4.97;4.43;;;;;;;4.35;100.00;99114.84;15275520;19;20026;-58
2022/10/20 01:13:14;;;;;;;6.97;4.72;;;;;;;4.31;100.00;99112.38;15268593;19;20018;-60
2022/10/20 01:18:54;;;;;;;6.72;5.00;;;;;;;4.28;100.00;99115.28;15272567;19;20022;-59
2022/10/20 01:24:49;;;;;;;7.65;4.70;;;;;;;4.28;100.00;99119.75;15274587;19;20018;-59
2022/10/20 01:30:22;;;;;;;6.63;4.78;;;;;;;4.23;100.00;99114.72;15270702;19;20021;-58
2022/10/20 01:35:56;;;;;;;7.40;5.15;;;;;;;4.16;100.00;99103.63;15266464;19;20651;-59
2022/10/20 01:41:31;;;;;;;6.03;4.97;;;;;;;4.10;100.00;99089.84;15275787;19;20015;-61
2022/10/20 01:47:02;;;;;;;8.57;5.30;;;;;;;3.98;100.00;99084.38;15266427;19;20022;-58
2022/10/20 01:52:27;;;;;;;6.95;5.60;;;;;;;3.92;100.00;99084.78;15275924;19;20014;-58
2022/10/20 01:58:11;;;;;;;5.85;5.20;;;;;;;3.91;100.00;99090.22;15274012;19;20376;-60
2022/10/20 02:03:53;;;;;;;6.88;5.55;;;;;;;3.82;100.00;99084.53;15266978;19;20414;-59
2022/10/20 02:09:21;;;;;;;6.47;5.80;;;;;;;3.76;100.00;99076.97;15268614;19;20055;-60
2022/10/20 02:14:56;;;;;;;7.22;5.72;;;;;;;3.73;100.00;99074.50;15271047;19;20005;-57
2022/10/20 02:20:23;;;;;;;6.65;6.05;;;;;;;3.69;100.00;99070.31;15263432;19;20022;-54
2022/10/20 02:25:50;;;;;;;7.22;6.20;;;;;;;3.66;100.00;99055.41;15269426;19;20018;-58
2022/10/20 02:31:15;;;;;;;7.90;7.10;;;;;;;3.62;100.00;99059.22;15270577;19;20014;-61
2022/10/20 02:36:46;;;;;;;8.63;7.30;;;;;;;3.60;100.00;99061.13;15265009;19;20019;-60
2022/10/20 02:42:11;;;;;;;10.23;6.78;;;;;;;3.54;100.00;99054.38;15269678;19;20115;-57
2022/10/20 02:47:35;;;;;;;8.80;7.38;;;;;;;3.52;100.00;99042.13;15287154;19;20014;-59
2022/10/20 02:53:02;;;;;;;7.68;6.90;;;;;;;3.53;100.00;99055.34;15278499;19;21044;-59
2022/10/20 02:58:27;;;;;;;8.13;7.32;;;;;;;3.50;100.00;99054.69;15283635;19;20010;-59
2022/10/20 03:03:54;;;;;;;8.10;7.28;;;;;;;3.46;100.00;99042.53;15280320;19;20678;-61
2022/10/20 03:09:22;;;;;;;7.53;6.45;;;;;;;3.46;100.00;99030.06;15276298;19;20026;-60
2022/10/20 03:14:46;;;;;;;9.20;6.10;;;;;;;3.48;100.00;99035.28;15279239;19;20030;-61
2022/10/20 03:20:13;;;;;;;6.38;5.70;;;;;;;3.50;100.00;99014.72;15273935;19;20374;-58
2022/10/20 03:25:40;;;;;;;5.75;5.25;;;;;;;3.55;100.00;99017.94;15281891;19;20015;-60
2022/10/20 03:31:05;;;;;;;6.63;5.38;;;;;;;3.55;100.00;99015.28;15282929;19;20011;-62
2022/10/20 03:36:29;;;;;;;6.68;4.95;;;;;;;3.55;100.00;99000.16;15286036;19;20489;-62
2022/10/20 03:41:50;;;;;;;5.60;5.07;;;;;;;3.57;100.00;98996.53;15277971;19;20025;-61
2022/10/20 03:47:16;;;;;;;5.40;5.00;;;;;;;3.54;100.00;98993.09;15284194;19;20017;-62
2022/10/20 03:52:40;;;;;;;7.50;5.18;;;;;;;3.52;100.00;99003.03;15283693;19;20731;-62
2022/10/20 03:58:08;;;;;;;5.70;5.10;;;;;;;3.53;100.00;99001.22;15278472;19;20101;-62
2022/10/20 04:03:32;;;;;;;6.03;5.53;;;;;;;3.54;100.00;98995.75;15276872;19;20011;-61
2022/10/20 04:08:57;;;;;;;5.70;5.20;;;;;;;3.57;100.00;98996.53;15274951;19;20026;-61
2022/10/20 04:14:24;;;;;;;5.72;5.10;;;;;;;3.58;100.00;98988.44;15270603;19;20022;-61
2022/10/20 04:19:48;;;;;;;6.00;4.95;;;;;;;3.60;100.00;98975.00;15275009;19;20485;-61
2022/10/20 04:25:13;;;;;;;4.93;4.53;;;;;;;3.62;100.00;98968.63;15276565;19;20053;-61
2022/10/20 04:30:40;;;;;;;6.60;4.35;;;;;;;3.63;100.00;98965.00;15272678;19;20473;-61
2022/10/20 04:36:07;;;;;;;5.65;4.22;;;;;;;3.63;100.00;98965.00;15279912;19;20014;-62
2022/10/20 04:41:31;;;;;;;6.70;3.97;;;;;;;3.63;100.00;98951.69;15274276;19;20006;-61
2022/10/20 04:46:58;;;;;;;4.55;3.70;;;;;;;3.66;100.00;98940.81;15274305;19;20018;-60
2022/10/20 04:52:32;;;;;;;4.30;3.78;;;;;;;3.69;100.00;98934.41;15278089;19;20035;-61
2022/10/20 04:57:57;;;;;;;4.32;3.70;;;;;;;3.73;100.00;98929.72;15272813;19;20010;-60
2022/10/20 05:03:26;;;;;;;5.55;3.70;;;;;;;3.73;100.00;98921.72;15275061;19;20014;-60
2022/10/20 05:08:52;;;;;;;4.40;3.50;;;;;;;3.75;100.00;98923.34;15274485;19;20025;-61
2022/10/20 05:14:17;;;;;;;4.75;3.58;;;;;;;3.79;100.00;98906.16;15276251;19;20365;-59
2022/10/20 05:19:44;;;;;;;6.30;3.50;;;;;;;3.80;100.00;98904.38;15270193;19;20480;-61
2022/10/20 05:25:09;;;;;;;3.78;3.42;;;;;;;3.81;100.00;98900.75;15271513;19;20029;-60
2022/10/20 05:30:53;;;;;;;5.80;3.80;;;;;;;3.82;100.00;98900.63;15263803;19;20018;-61
2022/10/20 05:36:23;;;;;;;4.82;2.95;;;;;;;3.89;100.00;98916.19;15273639;19;20043;-62
2022/10/20 05:41:47;;;;;;;3.72;3.30;;;;;;;3.90;100.00;98918.75;15272185;19;20477;-63
2022/10/20 05:47:13;;;;;;;4.95;3.20;;;;;;;3.93;100.00;98917.69;15271586;19;20018;-64
2022/10/20 05:52:40;;;;;;;5.57;3.35;;;;;;;4.00;100.00;98917.16;15268261;19;20021;-62
2022/10/20 05:58:06;;;;;;;4.53;3.30;;;;;;;4.08;100.00;98905.09;15273666;19;20056;-62
2022/10/20 06:03:31;;;;;;;4.75;3.30;;;;;;;4.11;100.00;98921.75;15264252;19;20389;-61
2022/10/20 06:09:00;;;;;;;5.43;3.30;;;;;;;4.20;100.00;98917.56;15268831;19;20021;-61
2022/10/20 06:14:24;;;;;;;4.38;3.42;;;;;;;4.28;100.00;98911.69;15271225;19;20019;-61
2022/10/20 06:19:49;;;;;;;3.70;3.03;;;;;;;4.38;100.00;98911.88;15267221;19;20022;-62
2022/10/20 06:25:16;;;;;;;4.13;2.90;;;;;;;4.51;100.00;98909.19;15266213;19;20021;-61
2022/10/20 06:30:41;;;;;;;4.88;3.13;;;;;;;4.62;100.00;98904.78;15263945;19;20037;-64
2022/10/20 06:36:06;;;;;;;4.38;2.85;;;;;;;4.71;100.00;98899.72;15260623;19;20018;-63
2022/10/20 06:41:35;;;;;;;4.43;2.85;;;;;;;4.79;100.00;98900.03;15268663;19;20022;-62
2022/10/20 06:47:01;;;;;;;6.32;3.10;;;;;;;4.90;100.00;98889.41;15264757;19;20377;-63
2022/10/20 06:52:26;;;;;;;4.22;2.90;;;;;;;4.98;100.00;98894.16;15271175;19;20037;-64
2022/10/20 06:57:53;;;;;;;4.88;2.72;;;;;;;5.07;100.00;98892.66;15263795;19;20540;-63
2022/10/20 07:03:18;;;;;;;4.20;2.60;;;;;;;5.13;100.00;98884.16;15270769;19;20032;-64
2022/10/20 07:08:43;;;;;;;5.13;2.53;;;;;;;5.25;100.00;98880.56;15261413;19;20022;-63
2022/10/20 07:14:11;;;;;;;4.00;2.53;;;;;;;5.34;100.00;98880.84;15270452;19;20024;-62
2022/10/20 07:19:36;;;;;;;3.58;2.40;;;;;;;5.43;100.00;98871.25;15264588;19;20033;-63
2022/10/20 07:25:05;;;;;;;2.22;2.00;;;;;;;5.52;100.00;98870.59;15265566;19;20365;-60
2022/10/20 07:30:32;;;;;;;2.88;2.30;;;;;;;5.63;100.00;98857.22;15263298;19;20346;-64
2022/10/20 07:35:57;;;;;;;4.43;2.42;;;;;;;5.72;100.00;98852.97;15286434;19;20014;-63
2022/10/20 07:41:22;;;;;;;3.53;2.05;;;;;;;5.89;100.00;98861.50;15275289;19;20019;-60
2022/10/20 07:46:50;;;;;;;3.22;2.10;;;;;;;5.99;100.00;98846.44;15275953;19;20037;-63
2022/10/20 07:52:15;;;;;;;2.70;1.98;;;;;;;6.11;100.00;98844.66;15281372;19;20014;-65
2022/10/20 07:57:39;;;;;;;2.97;2.00;;;;;;;6.27;100.00;98830.91;15281367;19;20022;-63
2022/10/20 08:03:06;;;;;;;3.17;2.05;;;;;;;6.42;100.00;98834.16;15283236;19;20081;-64
2022/10/20 08:08:31;;;;;;;2.92;1.80;;;;;;;6.59;100.00;98828.25;15283225;19;20033;-64
2022/10/20 08:13:55;;;;;;;2.55;1.83;;;;;;;6.78;100.00;98824.91;15271261;19;20018;-62
2022/10/20 08:19:23;;;;;;;2.42;1.80;;;;;;;6.92;100.00;98818.44;15256027;19;20025;-63
2022/10/20 08:25:14;;;;;;;2.22;1.70;;;;;;;7.07;100.00;98802.03;15273852;19;20022;-63
2022/10/20 08:30:39;;;;;;;2.55;1.58;;;;;;;7.21;100.00;98788.31;15273994;19;20025;-63
2022/10/20 08:36:09;;;;;;;3.20;1.73;;;;;;;7.42;100.00;98786.59;15280104;19;20026;-64
2022/10/20 08:41:38;;;;;;;3.47;1.60;;;;;;;7.66;100.00;98773.75;15277755;19;20043;-64
2022/10/20 08:47:31;;;;;;;1.95;1.40;;;;;;;7.91;100.00;98758.19;15271732;19;20030;-63
2022/10/20 08:53:02;;;;;;;3.35;1.50;;;;;;;8.14;100.00;98758.81;15282208;19;20022;-63
2022/10/20 08:58:27;;;;;;;4.40;1.35;;;;;;;8.44;100.00;98740.94;15275485;19;20025;-64
2022/10/20 09:03:52;;;;;;;4.25;1.35;;;;;;;8.71;100.00;98736.72;15276316;19;20510;-63
2022/10/20 09:09:22;;;;;;;2.67;1.10;;;;;;;8.90;100.00;98725.09;15276190;19;20018;-64
2022/10/20 09:14:46;;;;;;;4.30;1.20;;;;;;;9.23;100.00;98727.47;15272707;19;20011;-62
2022/10/20 09:20:20;;;;;;;3.30;0.98;;;;;;;9.46;100.00;98725.28;15271302;19;20665;-61
2022/10/20 09:25:50;;;;;;;1.23;0.98;;;;;;;9.73;100.00;98725.47;15274150;19;20074;-62
2022/10/20 09:31:24;;;;;;;1.80;0.88;;;;;;;9.97;100.00;98708.75;15278037;19;20041;-62
2022/10/20 09:36:49;;;;;;;3.58;0.90;;;;;;;10.20;100.00;98711.91;15276706;19;20035;-62
2022/10/20 09:42:22;;;;;;;1.13;0.80;;;;;;;10.43;100.00;98698.00;15274124;19;20473;-64
2022/10/20 09:47:53;;;;;;;2.00;0.90;;;;;;;10.63;100.00;98704.09;15274462;19;20019;-64
2022/10/20 09:53:21;;;;;;;3.20;0.90;;;;;;;10.75;100.00;98691.22;15272489;19;20021;-64
2022/10/20 09:58:48;;;;;;;2.90;1.00;;;;;;;10.91;100.00;98679.72;15271491;19;20025;-62
2022/10/20 10:04:33;;;;;;;1.75;0.80;;;;;;;11.06;100.00;98674.59;15271326;19;20514;-63
2022/10/20 10:10:04;;;;;;;1.20;0.70;;;;;;;11.34;100.00;98661.81;15266901;19;20018;-62
2022/10/20 10:15:33;;;;;;;3.80;0.60;;;;;;;11.52;100.00;98663.56;15268876;19;20018;-61
2022/10/20 10:21:07;;;;;;;3.17;0.80;;;;;;;11.77;100.00;98660.97;15261355;19;20077;-63
2022/10/20 10:26:44;;;;;;;2.70;0.70;;;;;;;12.02;100.00;98657.38;15273058;19;20023;-62
2022/10/20 10:32:21;;;;;;;3.88;0.70;;;;;;;12.20;100.00;98647.47;15271938;19;20027;-63
2022/10/20 10:38:00;;;;;;;1.40;0.60;;;;;;;12.37;100.00;98637.53;15272495;19;20082;-61
2022/10/20 10:43:36;;;;;;;1.48;0.70;;;;;;;12.55;100.00;98635.50;15268418;19;20385;-62
2022/10/20 10:49:35;;;;;;;1.37;0.57;;;;;;;12.73;100.00;98602.03;15271539;19;20364;-61
2022/10/20 10:55:21;;;;;;;0.65;0.50;;;;;;;12.87;100.00;98595.94;15266175;19;20492;-61
2022/10/20 11:01:20;;;;;;;2.17;1.00;;;;;;;13.00;100.00;98572.91;15269493;19;20019;-60
2022/10/20 11:06:52;;;;;;;1.37;0.70;;;;;;;13.21;100.00;98565.09;15277014;19;20482;-58
2022/10/20 11:12:34;;;;;;;1.97;0.53;;;;;;;13.37;100.00;98566.00;15289743;19;20022;-60
2022/10/20 11:18:18;;;;;;;3.33;0.50;;;;;;;13.54;100.00;98551.44;15272203;19;20318;-55
2022/10/20 11:24:11;;;;;;;1.25;0.50;;;;;;;13.75;100.00;98547.25;15285631;19;20025;-54
2022/10/20 11:29:40;;;;;;;0.40;0.40;;;;;;;13.94;100.00;98548.66;15277787;19;20532;-55
2022/10/20 11:35:15;;;;;;;1.55;0.63;;;;;;;14.02;100.00;98545.88;15287059;19;20025;-55
2022/10/20 11:40:47;;;;;;;1.52;0.50;;;;;;;14.24;100.00;98537.09;15279427;19;20026;-59
2022/10/20 11:46:15;;;;;;;0.60;0.40;;;;;;;14.34;100.00;98516.00;15284479;19;20010;-61
2022/10/20 11:52:01;;;;;;;2.20;0.50;;;;;;;14.52;100.00;98503.97;15286033;19;20018;-60
2022/10/20 11:57:45;;;;;;;1.35;0.50;;;;;;;14.60;100.00;98502.00;15275379;19;20020;-59
2022/10/20 12:03:45;;;;;;;0.43;0.43;;;;;;;14.69;99.40;98504.69;15284117;19;20090;-60
2022/10/20 12:09:45;;;;;;;1.90;0.50;;;;;;;14.63;100.00;98495.41;15280919;19;20014;-57
2022/10/20 12:15:28;;;;;;;2.33;0.77;;;;;;;14.63;100.00;98489.97;15280471;19;20344;-53
2022/10/20 12:20:58;;;;;;;2.03;1.00;;;;;;;14.74;95.21;98486.81;15272906;19;20018;-61
2022/10/20 12:27:10;;;;;;;1.30;0.57;;;;;;;15.00;100.00;98473.81;15284124;19;20014;-59
2022/10/20 12:32:56;;;;;;;2.83;0.60;;;;;;;15.32;100.00;98458.13;15272768;19;20025;-60
2022/10/20 12:38:23;;;;;;;1.10;0.50;;;;;;;15.49;97.83;98451.44;15278178;19;20021;-57
2022/10/20 12:44:00;;;;;;;0.55;0.50;;;;;;;15.56;81.67;98443.34;15285074;19;20017;-61
2022/10/20 12:49:32;;;;;;;0.82;0.55;;;;;;;15.60;91.05;98449.25;15281532;19;20030;-59
2022/10/20 12:55:03;;;;;;;0.95;0.60;;;;;;;15.74;79.87;98459.22;15284782;19;20014;-60
2022/10/20 13:00:58;;;;;;;0.50;0.50;;;;;;;15.79;74.21;98462.16;15274348;19;20014;-55
2022/10/20 13:06:50;;;;;;;1.73;0.80;;;;;;;15.89;79.49;98463.75;15275015;19;20028;-56
2022/10/20 13:12:28;;;;;;;1.15;0.47;;;;;;;15.83;69.92;98468.03;15278451;19;20014;-59
2022/10/20 13:18:05;;;;;;;1.73;0.65;;;;;;;15.95;79.77;98466.53;15279627;19;20015;-59
2022/10/20 13:23:38;;;;;;;3.42;0.70;;;;;;;15.88;77.64;98454.75;15281802;19;20022;-60
2022/10/20 13:29:05;;;;;;;1.10;0.65;;;;;;;15.91;85.91;98438.09;15273460;19;20818;-60
2022/10/20 13:34:35;;;;;;;2.05;0.63;;;;;;;15.67;83.89;98442.00;15270328;19;20457;-61
2022/10/20 13:40:12;;;;;;;1.65;0.70;;;;;;;15.40;82.44;98453.41;15275101;19;20037;-60
2022/10/20 13:45:54;;;;;;;1.63;0.63;;;;;;;15.24;82.37;98450.91;15277290;19;20018;-58
2022/10/20 13:51:25;;;;;;;1.10;0.68;;;;;;;15.28;100.00;98430.53;15279921;19;20096;-59
2022/10/20 13:56:53;;;;;;;1.27;0.88;;;;;;;15.27;100.00;98417.16;15280659;19;20023;-60
2022/10/20 14:02:33;;;;;;;2.08;0.88;;;;;;;15.17;100.00;98412.84;15280224;19;20093;-59
2022/10/20 14:08:01;;;;;;;1.58;0.70;;;;;;;15.04;100.00;98407.28;15273997;19;20026;-58
2022/10/20 14:13:30;;;;;;;2.38;0.80;;;;;;;14.95;100.00;98422.84;15277090;19;20023;-58
2022/10/20 14:19:08;;;;;;;1.75;0.80;;;;;;;14.87;100.00;98410.22;15274864;19;20019;-60
2022/10/20 14:24:35;;;;;;;2.00;0.90;;;;;;;14.78;100.00;98423.03;15275955;19;20018;-60
2022/10/20 14:30:04;;;;;;;1.35;0.88;;;;;;;14.75;100.00;98433.41;15272231;19;20039;-59
2022/10/20 14:35:41;;;;;;;1.58;0.77;;;;;;;14.70;100.00;98431.28;15277669;19;20011;-60
2022/10/20 14:41:07;;;;;;;1.63;0.93;;;;;;;14.73;100.00;98428.19;15280000;19;20461;-62
2022/10/20 14:46:38;;;;;;;1.17;0.80;;;;;;;14.76;100.00;98414.22;15288665;19;20394;-61
2022/10/20 14:52:04;;;;;;;1.60;0.82;;;;;;;14.71;100.00;98397.72;15290125;19;20022;-60
2022/10/20 14:57:56;;;;;;;2.67;0.77;;;;;;;14.62;100.00;98396.09;15283138;19;20026;-61
2022/10/20 15:03:24;;;;;;;4.10;0.98;;;;;;;14.47;100.00;98388.81;15288624;19;20014;-62
2022/10/20 15:09:00;;;;;;;2.15;0.95;;;;;;;14.33;100.00;98389.63;15282949;19;20077;-61
2022/10/20 15:14:25;;;;;;;2.65;0.57;;;;;;;14.12;100.00;98383.09;15260222;19;20029;-61
2022/10/20 15:19:52;;;;;;;0.93;0.80;;;;;;;13.93;100.00;98368.22;15284647;19;20014;-61
2022/10/20 15:25:17;;;;;;;1.27;0.98;;;;;;;13.75;100.00;98357.72;15286276;19;20022;-58
2022/10/20 15:30:42;;;;;;;1.88;0.90;;;;;;;13.56;100.00;98343.69;15284427;19;20018;-61
2022/10/20 15:36:18;;;;;;;2.05;1.05;;;;;;;13.35;100.00;98313.69;15288790;19;20015;-61
2022/10/20 15:41:44;;;;;;;1.23;0.95;;;;;;;13.17;100.00;98316.75;15287181;19;20023;-58
2022/10/20 15:47:12;;;;;;;1.88;0.93;;;;;;;12.97;100.00;98329.88;15279816;19;20346;-54
2022/10/20 15:52:39;;;;;;;2.03;1.10;;;;;;;12.77;100.00;98341.13;15284198;19;20030;-61
2022/10/20 15:58:05;;;;;;;1.92;1.20;;;;;;;12.60;100.00;98351.19;15282202;19;20366;-61
2022/10/20 16:03:29;;;;;;;2.90;1.15;;;;;;;12.46;100.00;98353.66;15281219;19;20014;-58
2022/10/20 16:08:56;;;;;;;3.42;1.20;;;;;;;12.38;100.00;98361.75;15279352;19;20018;-59
2022/10/20 16:14:22;;;;;;;2.25;1.25;;;;;;;12.28;100.00;98356.56;15282418;19;20018;-61
2022/10/20 16:19:47;;;;;;;1.83;1.20;;;;;;;12.14;100.00;98371.63;15272856;19;20022;-58
2022/10/20 16:25:14;;;;;;;2.28;1.02;;;;;;;12.06;100.00;98368.94;15281115;19;20014;-59
2022/10/20 16:30:40;;;;;;;2.15;1.00;;;;;;;11.99;100.00;98367.97;15274352;19;20377;-56
2022/10/20 16:36:05;;;;;;;1.60;1.15;;;;;;;11.91;100.00;98367.94;15279671;19;20035;-56
2022/10/20 16:41:33;;;;;;;1.50;1.20;;;;;;;11.82;100.00;98357.16;15280710;19;20492;-58
2022/10/20 16:46:57;;;;;;;2.72;1.20;;;;;;;11.77;100.00;98353.28;14769430;19;10000835;-58
2022/10/20 16:52:22;;;;;;;2.88;1.20;;;;;;;11.66;100.00;98360.72;15284468;19;20002;-60
2022/10/20 16:57:50;;;;;;;1.20;1.10;;;;;;;11.58;100.00;98358.03;15284779;19;20013;-60
2022/10/20 17:03:15;;;;;;;2.17;1.20;;;;;;;11.53;100.00;98357.69;15276695;19;20018;-61
2022/10/20 17:08:40;;;;;;;1.55;1.30;;;;;;;11.44;100.00;98346.03;15273566;19;20026;-59
2022/10/20 17:14:07;;;;;;;1.83;1.20;;;;;;;11.35;100.00;98323.59;15281298;19;20022;-61
2022/10/20 17:19:31;;;;;;;3.15;1.48;;;;;;;11.38;100.00;98336.78;15273270;19;20011;-57
2022/10/20 17:24:56;;;;;;;2.08;1.15;;;;;;;11.44;100.00;98351.44;15282066;19;20015;-61
2022/10/20 17:30:24;;;;;;;1.67;1.15;;;;;;;11.57;100.00;98342.84;15339807;19;20015;-58
2022/10/20 17:35:50;;;;;;;2.78;1.30;;;;;;;11.69;100.00;98343.34;15350275;19;20003;-61
2022/10/20 17:41:16;;;;;;;1.63;1.35;;;;;;;11.77;100.00;98337.09;15285350;19;20019;-58
2022/10/20 17:46:44;;;;;;;1.75;1.30;;;;;;;11.79;100.00;98343.16;15292332;19;20042;-61
2022/10/20 17:52:09;;;;;;;2.55;1.38;;;;;;;11.83;100.00;98339.09;15281036;19;20021;-59
2022/10/20 17:57:33;;;;;;;2.97;1.50;;;;;;;11.85;100.00;98339.75;15287950;19;20390;-60
2022/10/20 18:03:00;;;;;;;2.00;1.33;;;;;;;11.88;100.00;98334.03;15289975;19;20029;-60
2022/10/20 18:08:25;;;;;;;2.35;1.50;;;;;;;11.90;100.00;98314.94;15289078;19;20480;-60
2022/10/20 18:13:51;;;;;;;1.85;1.30;;;;;;;11.90;100.00;98299.59;15281753;19;20023;-60
2022/10/20 18:19:27;;;;;;;2.45;1.50;;;;;;;11.89;100.00;98287.13;15285477;19;20039;-60
2022/10/20 18:24:52;;;;;;;2.75;1.35;;;;;;;11.93;100.00;98268.72;15274841;19;20010;-58
2022/10/20 18:30:17;;;;;;;2.28;1.40;;;;;;;11.94;100.00;98251.50;15274536;19;20509;-61
2022/10/20 18:35:44;;;;;;;2.38;1.10;;;;;;;11.90;100.00;98253.72;15272431;19;20568;-60
2022/10/20 18:41:13;;;;;;;1.98;1.40;;;;;;;11.87;100.00;98235.16;15271405;19;20022;-60
2022/10/20 18:46:38;;;;;;;2.08;1.40;;;;;;;11.83;100.00;98193.31;15270761;19;20366;-59
2022/10/20 18:52:05;;;;;;;2.85;1.40;;;;;;;11.75;100.00;98247.34;15269885;19;20044;-58
2022/10/20 18:57:33;;;;;;;4.53;1.42;;;;;;;11.71;100.00;98295.44;15259952;19;20031;-61
2022/10/20 19:02:58;;;;;;;4.18;1.63;;;;;;;11.70;100.00;98305.38;15265508;19;20019;-61
2022/10/20 19:08:25;;;;;;;3.17;1.50;;;;;;;11.64;100.00;98287.19;15261428;19;20025;-61
2022/10/20 19:13:51;;;;;;;3.25;1.50;;;;;;;11.62;100.00;98289.19;15267500;19;20014;-61
2022/10/20 19:19:23;;;;;;;2.53;1.50;;;;;;;11.62;100.00;98296.47;15262512;19;20053;-61
2022/10/20 19:24:50;;;;;;;1.80;1.50;;;;;;;11.58;100.00;98312.16;15271029;19;20029;-61
2022/10/20 19:30:16;;;;;;;2.22;1.60;;;;;;;11.45;100.00;98317.22;15274743;19;20022;-59
2022/10/20 19:36:01;;;;;;;2.55;1.73;;;;;;;11.42;100.00;98315.69;15284502;19;20523;-61
2022/10/20 19:41:28;;;;;;;2.65;1.92;;;;;;;11.44;100.00;98312.84;15283577;19;20025;-62
2022/10/20 19:46:53;;;;;;;3.38;1.70;;;;;;;11.45;100.00;98309.13;15282732;19;20018;-57
2022/10/20 19:52:20;;;;;;;2.50;1.63;;;;;;;11.46;100.00;98291.94;15278880;19;20469;-61
2022/10/20 19:57:47;;;;;;;4.28;1.50;;;;;;;11.45;100.00;98284.84;15272792;19;20026;-61
2022/10/20 20:03:12;;;;;;;2.28;1.63;;;;;;;11.46;100.00;98291.94;15277829;19;20029;-58
2022/10/20 20:08:38;;;;;;;3.05;1.60;;;;;;;11.48;100.00;98300.69;15270837;19;20022;-61
2022/10/20 20:14:09;;;;;;;2.60;1.50;;;;;;;11.48;100.00;98306.94;15278255;19;20014;-61
2022/10/20 20:19:40;;;;;;;2.13;1.50;;;;;;;11.48;100.00;98306.06;15268112;19;20022;-62
2022/10/20 20:25:07;;;;;;;2.65;1.80;;;;;;;11.50;100.00;98299.53;15278539;19;20026;-60
2022/10/20 20:30:34;;;;;;;2.03;1.70;;;;;;;11.48;100.00;98292.59;15276644;19;20022;-61
2022/10/20 20:36:00;;;;;;;3.28;1.60;;;;;;;11.49;100.00;98294.28;15273453;19;20513;-62
2022/10/20 20:41:26;;;;;;;3.90;1.60;;;;;;;11.50;100.00;98291.41;15278630;19;20023;-62
2022/10/20 20:46:54;;;;;;;3.72;1.45;;;;;;;11.51;100.00;98314.69;15277355;19;20766;-59
2022/10/20 20:52:20;;;;;;;4.63;1.45;;;;;;;11.51;100.00;98312.00;15272890;19;20029;-60
2022/10/20 20:57:45;;;;;;;3.92;1.55;;;;;;;11.49;100.00;98310.47;15271830;19;20529;-60
2022/10/20 21:03:12;;;;;;;1.90;1.50;;;;;;;11.48;100.00;98297.97;15277896;19;20529;-60
2022/10/20 21:08:39;;;;;;;4.70;1.88;;;;;;;11.47;100.00;98290.91;15265616;19;20091;-58
2022/10/20 21:14:06;;;;;;;3.60;1.55;;;;;;;11.47;100.00;98280.09;15273939;19;20042;-61
2022/10/20 21:19:40;;;;;;;3.92;1.50;;;;;;;11.45;100.00;98290.25;15267744;19;20445;-60
2022/10/20 21:25:05;;;;;;;2.17;1.40;;;;;;;11.44;100.00;98277.78;15274207;19;20018;-58
2022/10/20 21:30:30;;;;;;;2.42;1.40;;;;;;;11.47;100.00;98272.88;15272877;19;20029;-61
2022/10/20 21:36:01;;;;;;;3.47;1.35;;;;;;;11.51;100.00;98263.44;15276587;19;20025;-58
2022/10/20 21:41:27;;;;;;;2.47;1.30;;;;;;;11.55;100.00;98259.34;15272588;19;20045;-58
2022/10/20 21:46:53;;;;;;;2.35;1.40;;;;;;;11.57;100.00;98264.59;15273880;19;20006;-57
2022/10/20 21:52:20;;;;;;;3.58;1.40;;;;;;;11.59;100.00;98259.84;15274626;19;20014;-57
2022/10/20 21:57:45;;;;;;;3.63;1.40;;;;;;;11.56;100.00;98255.66;15273514;19;20014;-59
2022/10/20 22:03:09;;;;;;;2.35;1.33;;;;;;;11.56;100.00;98252.94;15276475;19;20018;-59
2022/10/20 22:08:38;;;;;;;3.15;1.50;;;;;;;11.58;100.00;98242.00;15272057;19;20023;-56
2022/10/20 22:14:03;;;;;;;3.03;1.33;;;;;;;11.59;100.00;98243.66;15270062;19;20014;-60
2022/10/20 22:19:34;;;;;;;2.67;1.58;;;;;;;11.56;100.00;98241.34;15262658;19;20045;-60
2022/10/20 22:25:01;;;;;;;2.37;1.50;;;;;;;11.56;100.00;98252.94;15273391;19;20037;-57
2022/10/20 22:30:27;;;;;;;2.00;1.33;;;;;;;11.56;100.00;98242.16;15269080;19;20306;-57
2022/10/20 22:35:52;;;;;;;2.80;1.55;;;;;;;11.55;100.00;98237.78;15273151;19;20021;-60
2022/10/20 22:41:19;;;;;;;3.28;1.60;;;;;;;11.54;100.00;98241.47;15270774;19;20018;-57
2022/10/20 22:46:44;;;;;;;1.45;1.30;;;;;;;11.56;100.00;98244.03;15268933;19;20022;-59
2022/10/20 22:52:08;;;;;;;2.15;1.42;;;;;;;11.59;100.00;98256.31;15266615;19;20015;-58
2022/10/20 22:57:36;;;;;;;1.77;1.40;;;;;;;11.59;100.00;98240.97;15264076;19;20053;-60
2022/10/20 23:03:00;;;;;;;3.35;1.52;;;;;;;11.59;100.00;98240.97;15281858;19;20488;-57
2022/10/20 23:08:25;;;;;;;2.90;1.63;;;;;;;11.59;100.00;98238.25;15280690;19;20376;-61
2022/10/20 23:13:53;;;;;;;1.55;1.40;;;;;;;11.61;100.00;98238.94;15286939;19;20017;-59
2022/10/20 23:19:25;;;;;;;1.90;1.40;;;;;;;11.63;100.00;98214.50;15278255;19;20019;-59
2022/10/20 23:24:50;;;;;;;2.03;1.50;;;;;;;11.62;100.00;98204.72;15283483;19;20038;-59
2022/10/20 23:30:18;;;;;;;2.63;1.60;;;;;;;11.62;100.00;98194.75;15279582;19;20389;-59
2022/10/20 23:35:43;;;;;;;2.22;1.48;;;;;;;11.63;100.00;98193.75;15287727;19;20026;-57
2022/10/20 23:41:07;;;;;;;2.03;1.50;;;;;;;11.71;100.00;98199.09;15286069;19;20018;-59
2022/10/20 23:46:35;;;;;;;1.55;1.25;;;;;;;11.75;100.00;98187.97;15285577;19;20011;-59
2022/10/20 23:51:59;;;;;;;1.42;1.33;;;;;;;11.72;100.00;98168.41;15279874;19;20018;-56
2022/10/20 23:57:24;;;;;;;1.80;1.33;;;;;;;11.72;100.00;98172.97;15277733;19;20710;-57
